Tifton, Georgia
Current Conditions -  °F | °C
As of 7:35 AM on Monday 22 Dec 2014 (Local Time) from KTMA Reporting Station
Light Rain Light Rain  
Wind Chill: 48°   Ceiling: 200
Heat Index: 48°   Visibility: 0.5mi
Dew Point: 48°   Wind: 3mph
Humidity: 100%   Direction: 60°ENE
Pressure: 30.01"   Gusts: NA
Location:  31.45°N, 83.51°W
Report Text: KTMA 221235Z AUTO 06003KT 1/2SM -RA OVC002 09/09 A3001 RMK AO2 T00870087
Loading
Personal Weather Stations






























Interactive Weather Map New forecast layout! Learn more

10-Day Weather Forecast

Advertisements
Track Severe Weather on mobile